Terminal Aerodrome Forecast
Issued by NWS

Home | Current Version | Previous Version | Text Only | Print | Product List | Glossary On
Versions: 1 2 3 4 5 6 7 8 9 10 11 12 13 14 15 16 17 18 19
000
FTUS43 KEAX 182300
TAFSTJ
TAF
KSTJ 182330Z 1900/1924 12005KT P6SM BKN020
      TEMPO 1904/1906 FEW020
     FM190600 12005KT 4SM BR OVC008
     FM190800 13005KT 2SM BR OVC004
     FM191500 14007KT P6SM BKN008
     FM191700 17011KT P6SM SCT025
      TEMPO 1917/1920 BKN025=

USA.gov is the U.S. government's official web portal to all federal, state and local government web resources and services.